createdAt,value
2023-03-30T00:01:09.963Z,99828.00
2023-03-30T00:03:39.029Z,99803.84
2023-03-30T00:06:06.537Z,99796.63
2023-03-30T00:08:33.646Z,99795.16
2023-03-30T00:11:13.203Z,99802.53
2023-03-30T00:13:40.363Z,99805.19
2023-03-30T00:16:09.849Z,99793.16
2023-03-30T00:18:39.373Z,99786.22
2023-03-30T00:21:09.450Z,99783.78
2023-03-30T00:23:36.628Z,99787.28
2023-03-30T00:26:04.037Z,99773.59
2023-03-30T00:28:31.787Z,99775.53
2023-03-30T00:30:59.194Z,99782.25
2023-03-30T00:33:41.319Z,99786.69
2023-03-30T00:36:09.135Z,99787.56
2023-03-30T00:38:36.137Z,99794.16
2023-03-30T00:41:03.371Z,99790.59
2023-03-30T00:43:30.573Z,99788.72
2023-03-30T00:45:58.038Z,99785.53
2023-03-30T00:48:34.596Z,99788.53
2023-03-30T00:51:05.351Z,99789.16
2023-03-30T00:53:45.800Z,99782.22
2023-03-30T00:56:17.036Z,99769.00
2023-03-30T00:58:46.292Z,99767.72
2023-03-30T01:01:18.915Z,99775.50
2023-03-30T01:03:48.279Z,99756.38
2023-03-30T01:06:22.037Z,99740.06
2023-03-30T01:08:50.535Z,99755.13
2023-03-30T01:11:17.406Z,99767.31
2023-03-30T01:13:52.760Z,99758.19
2023-03-30T01:17:02.961Z,99776.91
2023-03-30T01:19:48.228Z,99764.16
2023-03-30T01:22:39.141Z,99759.00
2023-03-30T01:25:40.472Z,99763.56
2023-03-30T01:28:38.425Z,99758.38
2023-03-30T01:32:03.445Z,99782.03
2023-03-30T01:34:46.161Z,99776.41
2023-03-30T01:37:58.172Z,99775.81
2023-03-30T01:40:54.712Z,99785.63
2023-03-30T01:43:41.697Z,99799.25
2023-03-30T01:46:25.378Z,99804.50
2023-03-30T01:49:24.467Z,99803.59
2023-03-30T01:52:38.484Z,99796.91
2023-03-30T01:55:14.786Z,99801.69
2023-03-30T01:58:04.450Z,99786.72
2023-03-30T02:00:32.132Z,99790.34
2023-03-30T02:03:15.712Z,99792.94
2023-03-30T02:05:47.292Z,99789.06
2023-03-30T02:08:20.120Z,99790.06
2023-03-30T02:10:48.374Z,99801.66
2023-03-30T02:13:17.635Z,99810.50
2023-03-30T02:15:57.282Z,99803.09
2023-03-30T02:18:24.933Z,99804.09
2023-03-30T02:20:52.108Z,99809.34
2023-03-30T02:23:23.113Z,99805.81
2023-03-30T02:25:49.986Z,99802.22
2023-03-30T02:28:18.480Z,99780.91
2023-03-30T02:30:47.136Z,99774.50
2023-03-30T02:33:37.817Z,99776.50
2023-03-30T02:37:01.882Z,99785.34
2023-03-30T02:39:59.718Z,99799.41
2023-03-30T02:42:55.942Z,99789.78
2023-03-30T02:45:42.894Z,99810.53
2023-03-30T02:48:51.825Z,99799.44
2023-03-30T02:51:28.174Z,99806.03
2023-03-30T02:54:18.253Z,99797.56
2023-03-30T02:57:44.153Z,99782.94
2023-03-30T03:00:18.186Z,99769.00
2023-03-30T03:03:11.540Z,99779.66
2023-03-30T03:05:38.911Z,99796.41
2023-03-30T03:08:06.156Z,99802.56
2023-03-30T03:10:36.293Z,99817.09
2023-03-30T03:13:03.188Z,99823.78
2023-03-30T03:15:30.304Z,99801.78
2023-03-30T03:17:58.480Z,99781.66
2023-03-30T03:20:30.314Z,99785.22
2023-03-30T03:22:57.278Z,99780.66
2023-03-30T03:25:24.276Z,99777.69
2023-03-30T03:27:51.215Z,99781.41
2023-03-30T03:30:18.440Z,99774.53
2023-03-30T03:32:45.416Z,99767.91
2023-03-30T03:35:12.617Z,99781.44
2023-03-30T03:37:39.582Z,99775.88
2023-03-30T03:40:08.187Z,99769.72
2023-03-30T03:42:35.993Z,99758.91
2023-03-30T03:45:03.593Z,99750.50
2023-03-30T03:47:32.495Z,99749.28
2023-03-30T03:50:01.046Z,99727.41
2023-03-30T03:52:28.573Z,99733.63
2023-03-30T03:54:55.625Z,99727.44
2023-03-30T03:57:23.997Z,99722.31
2023-03-30T03:59:56.400Z,99721.09
2023-03-30T04:02:24.193Z,99730.78
2023-03-30T04:04:52.344Z,99726.38
2023-03-30T04:07:20.163Z,99706.28
2023-03-30T04:09:47.117Z,99705.81
2023-03-30T04:12:14.038Z,99708.75
2023-03-30T04:14:41.122Z,99716.44
2023-03-30T04:17:08.061Z,99729.00
2023-03-30T04:19:36.122Z,99725.88
2023-03-30T04:22:06.088Z,99717.06
2023-03-30T04:24:35.508Z,99699.19
2023-03-30T04:27:03.305Z,99700.00
2023-03-30T04:29:30.867Z,99698.41
2023-03-30T04:32:02.818Z,99707.84
2023-03-30T04:34:30.967Z,99699.03
2023-03-30T04:36:58.316Z,99683.56
2023-03-30T04:39:30.361Z,99656.81
2023-03-30T04:41:57.461Z,99670.13
2023-03-30T04:44:24.429Z,99666.69
2023-03-30T04:46:51.354Z,99680.69
2023-03-30T04:49:18.487Z,99673.03
2023-03-30T04:51:45.581Z,99662.78
2023-03-30T04:54:12.569Z,99653.00
2023-03-30T04:56:39.586Z,99660.25
2023-03-30T04:59:07.015Z,99675.38
2023-03-30T05:01:34.074Z,99695.00
2023-03-30T05:04:01.001Z,99701.97
2023-03-30T05:06:27.880Z,99707.81
2023-03-30T05:08:54.799Z,99718.22
2023-03-30T05:11:21.673Z,99709.00
2023-03-30T05:13:52.321Z,99714.47
2023-03-30T05:16:19.280Z,99719.41
2023-03-30T05:18:47.340Z,99726.19
2023-03-30T05:21:15.905Z,99740.84
2023-03-30T05:23:42.998Z,99753.13
2023-03-30T05:26:10.642Z,99773.28
2023-03-30T05:28:37.607Z,99794.97
2023-03-30T05:31:04.865Z,99842.53
2023-03-30T05:33:32.088Z,99854.28
2023-03-30T05:35:59.123Z,99855.28
2023-03-30T05:38:26.443Z,99856.09
2023-03-30T05:40:54.516Z,99850.91
2023-03-30T05:43:21.846Z,99837.38
2023-03-30T05:45:49.114Z,99833.06
2023-03-30T05:48:16.265Z,99844.31
2023-03-30T05:50:43.168Z,99833.63
2023-03-30T05:53:10.846Z,99861.50
2023-03-30T05:55:38.196Z,99855.81
2023-03-30T05:58:05.161Z,99867.00
2023-03-30T06:00:36.676Z,99875.00
2023-03-30T06:03:04.562Z,99874.75
2023-03-30T06:05:34.576Z,99876.41
2023-03-30T06:08:01.614Z,99847.84
2023-03-30T06:10:28.654Z,99863.88
2023-03-30T06:12:55.936Z,99874.09
2023-03-30T06:15:23.053Z,99876.94
2023-03-30T06:17:51.980Z,99874.31
2023-03-30T06:20:22.418Z,99889.00
2023-03-30T06:22:49.619Z,99866.81
2023-03-30T06:25:17.306Z,99863.09
2023-03-30T06:27:44.978Z,99855.25
2023-03-30T06:30:13.299Z,99864.66
2023-03-30T06:32:40.398Z,99869.53
2023-03-30T06:35:07.738Z,99877.91
2023-03-30T06:37:36.541Z,99876.00
2023-03-30T06:40:08.355Z,99853.97
2023-03-30T06:42:36.664Z,99851.09
2023-03-30T06:45:04.451Z,99856.50
2023-03-30T06:47:31.441Z,99850.00
2023-03-30T06:49:58.561Z,99817.50
2023-03-30T06:52:25.549Z,99837.59
2023-03-30T06:54:52.439Z,99852.94
2023-03-30T06:57:19.543Z,99849.56
2023-03-30T06:59:46.475Z,99851.75
2023-03-30T07:02:16.754Z,99851.50
2023-03-30T07:04:46.659Z,99871.53
2023-03-30T07:07:14.185Z,99877.75
2023-03-30T07:09:41.198Z,99895.56
2023-03-30T07:12:08.381Z,99906.00
2023-03-30T07:14:35.343Z,99909.72
2023-03-30T07:17:02.690Z,99925.66
2023-03-30T07:19:29.748Z,99933.09
2023-03-30T07:21:57.281Z,99936.59
2023-03-30T07:24:24.267Z,99943.25
2023-03-30T07:26:51.363Z,99923.31
2023-03-30T07:29:18.307Z,99903.56
2023-03-30T07:31:45.331Z,99889.53
2023-03-30T07:34:12.315Z,99901.19
2023-03-30T07:36:39.185Z,99903.06
2023-03-30T07:39:08.136Z,99907.81
2023-03-30T07:41:35.097Z,99899.50
2023-03-30T07:44:02.166Z,99889.84
2023-03-30T07:46:29.137Z,99863.69
2023-03-30T07:48:56.229Z,99858.19
2023-03-30T07:51:23.883Z,99876.06
2023-03-30T07:53:52.015Z,99873.13
2023-03-30T07:56:19.019Z,99862.84
2023-03-30T07:58:46.059Z,99855.81
2023-03-30T08:01:13.418Z,99854.66
2023-03-30T08:03:40.340Z,99847.44
2023-03-30T08:06:07.521Z,99856.16
2023-03-30T08:08:34.790Z,99870.34
2023-03-30T08:11:02.200Z,99866.53
2023-03-30T08:13:29.441Z,99854.34
2023-03-30T08:15:56.403Z,99870.84
2023-03-30T08:18:23.362Z,99862.47
2023-03-30T08:20:53.659Z,99873.97
2023-03-30T08:23:21.995Z,99869.19
2023-03-30T08:25:52.587Z,99862.16
2023-03-30T08:28:21.302Z,99873.03
2023-03-30T08:30:48.560Z,99869.78
2023-03-30T08:33:16.216Z,99855.16
2023-03-30T08:35:47.621Z,99873.03
2023-03-30T08:38:17.652Z,99866.13
2023-03-30T08:40:48.082Z,99879.69
2023-03-30T08:43:42.167Z,99883.66
2023-03-30T08:46:16.026Z,99896.41
2023-03-30T08:48:44.458Z,99918.97
2023-03-30T08:51:31.623Z,99930.38
2023-03-30T08:54:01.956Z,99949.75
2023-03-30T08:56:34.913Z,99964.56
2023-03-30T08:59:11.261Z,99957.16
2023-03-30T09:01:49.895Z,99954.50
2023-03-30T09:04:57.732Z,99946.72
2023-03-30T09:07:29.463Z,99936.31
2023-03-30T09:09:58.100Z,99941.25
2023-03-30T09:12:37.422Z,99932.72
2023-03-30T09:15:25.902Z,99923.06
2023-03-30T09:18:05.093Z,99924.88
2023-03-30T09:20:37.413Z,99928.72
2023-03-30T09:23:05.933Z,99900.31
2023-03-30T09:25:38.579Z,99906.81
2023-03-30T09:28:29.013Z,99885.19
2023-03-30T09:31:05.219Z,99896.84
2023-03-30T09:33:38.323Z,99881.41
2023-03-30T09:36:11.617Z,99895.09
2023-03-30T09:38:41.947Z,99892.56
2023-03-30T09:41:21.826Z,99895.81
2023-03-30T09:43:51.256Z,99876.44
2023-03-30T09:46:18.323Z,99876.03
2023-03-30T09:48:48.353Z,99872.06
2023-03-30T09:51:25.658Z,99879.38
2023-03-30T09:54:19.307Z,99884.44
2023-03-30T09:56:51.487Z,99896.47
2023-03-30T09:59:31.232Z,99903.31
2023-03-30T10:02:13.236Z,99895.84
2023-03-30T10:04:52.856Z,99895.56
2023-03-30T10:07:32.349Z,99894.78
2023-03-30T10:10:13.017Z,99890.88
2023-03-30T10:12:40.308Z,99881.84
2023-03-30T10:15:18.459Z,99877.44
2023-03-30T10:17:51.446Z,99885.03
2023-03-30T10:20:36.512Z,99865.22
2023-03-30T10:23:17.435Z,99877.75
2023-03-30T10:25:46.626Z,99862.84
2023-03-30T10:28:21.780Z,99855.69
2023-03-30T10:31:02.353Z,99847.97
2023-03-30T10:33:31.781Z,99850.13
2023-03-30T10:36:01.027Z,99859.88
2023-03-30T10:38:33.167Z,99852.38
2023-03-30T10:41:07.889Z,99846.94
2023-03-30T10:43:36.835Z,99845.69
2023-03-30T10:46:20.505Z,99820.94
2023-03-30T10:49:50.784Z,99825.88
2023-03-30T10:52:33.577Z,99823.59
2023-03-30T10:55:42.029Z,99833.91
2023-03-30T10:58:49.176Z,99840.69
2023-03-30T11:01:26.455Z,99831.31
2023-03-30T11:04:12.442Z,99839.38
2023-03-30T11:06:49.342Z,99840.59
2023-03-30T11:09:28.225Z,99855.63
2023-03-30T11:12:06.126Z,99831.75
2023-03-30T11:14:51.829Z,99841.69
2023-03-30T11:17:32.372Z,99822.84
2023-03-30T11:20:18.115Z,99850.53
2023-03-30T11:22:54.009Z,99839.69
2023-03-30T11:25:31.110Z,99838.88
2023-03-30T11:28:20.898Z,99838.69
2023-03-30T11:30:51.155Z,99838.59
2023-03-30T11:33:29.388Z,99829.50
2023-03-30T11:36:19.462Z,99836.22
2023-03-30T11:39:01.059Z,99834.03
2023-03-30T11:41:37.010Z,99822.53
2023-03-30T11:44:04.110Z,99828.34
2023-03-30T11:47:21.772Z,99815.03
2023-03-30T11:50:18.242Z,99809.94
2023-03-30T11:53:34.156Z,99818.66
2023-03-30T11:56:27.794Z,99820.31
2023-03-30T11:59:38.350Z,99814.25
2023-03-30T12:02:34.930Z,99806.16
2023-03-30T12:05:12.097Z,99788.50
2023-03-30T12:08:19.996Z,99792.78
2023-03-30T12:11:02.604Z,99787.31
2023-03-30T12:13:41.017Z,99787.94
2023-03-30T12:16:33.932Z,99793.25
2023-03-30T12:19:22.280Z,99789.38
2023-03-30T12:22:13.936Z,99774.22
2023-03-30T12:25:02.656Z,99791.22
2023-03-30T12:27:31.196Z,99775.63
2023-03-30T12:30:26.027Z,99762.47
2023-03-30T12:33:13.032Z,99763.88
2023-03-30T12:35:56.194Z,99732.16
2023-03-30T12:38:27.720Z,99759.25
2023-03-30T12:41:18.208Z,99742.44
2023-03-30T12:44:04.912Z,99725.06
2023-03-30T12:47:02.937Z,99735.38
2023-03-30T12:49:42.950Z,99740.19
2023-03-30T12:52:17.856Z,99730.22
2023-03-30T12:55:22.808Z,99718.88
2023-03-30T12:58:26.748Z,99689.84
2023-03-30T13:01:23.263Z,99690.03
2023-03-30T13:03:59.257Z,99718.97
2023-03-30T13:06:34.461Z,99721.81
2023-03-30T13:09:16.329Z,99745.66
2023-03-30T13:12:03.264Z,99763.84
2023-03-30T13:14:34.942Z,99782.25
2023-03-30T13:17:01.846Z,99787.53
2023-03-30T13:19:34.561Z,99763.28
2023-03-30T13:22:13.835Z,99747.50
2023-03-30T13:24:58.581Z,99736.59
2023-03-30T13:27:27.486Z,99710.50
2023-03-30T13:30:09.361Z,99690.38
2023-03-30T13:33:15.638Z,99672.72
2023-03-30T13:36:12.156Z,99682.06
2023-03-30T13:39:04.048Z,99669.16
2023-03-30T13:41:50.791Z,99656.91
2023-03-30T13:44:42.249Z,99667.88
2023-03-30T13:47:49.445Z,99621.88
2023-03-30T13:50:27.302Z,99632.63
2023-03-30T13:52:56.174Z,99630.00
2023-03-30T13:55:33.286Z,99621.06
2023-03-30T13:58:05.389Z,99631.41
2023-03-30T14:01:20.364Z,99636.91
2023-03-30T14:04:00.784Z,99640.69
2023-03-30T14:06:31.848Z,99646.63
2023-03-30T14:09:24.827Z,99646.28
2023-03-30T14:11:55.459Z,99645.94
2023-03-30T14:14:46.917Z,99666.59
2023-03-30T14:17:23.518Z,99667.59
2023-03-30T14:20:06.155Z,99681.56
2023-03-30T14:22:41.066Z,99685.97
2023-03-30T14:25:30.600Z,99692.63
2023-03-30T14:28:16.334Z,99702.31
2023-03-30T14:30:59.205Z,99704.56
2023-03-30T14:33:26.827Z,99704.94
2023-03-30T14:35:59.820Z,99700.06
2023-03-30T14:38:38.451Z,99712.19
2023-03-30T14:41:27.384Z,99715.84
2023-03-30T14:44:00.486Z,99723.72
2023-03-30T14:46:42.513Z,99723.50
2023-03-30T14:49:31.469Z,99726.34
2023-03-30T14:52:18.319Z,99729.56
2023-03-30T14:54:58.036Z,99741.69
2023-03-30T14:57:37.736Z,99754.00
2023-03-30T15:00:17.068Z,99722.94
2023-03-30T15:02:45.560Z,99728.41
2023-03-30T15:05:16.730Z,99744.72
2023-03-30T15:07:48.661Z,99727.38
2023-03-30T15:10:34.071Z,99728.44
2023-03-30T15:13:02.074Z,99728.81
2023-03-30T15:15:32.243Z,99735.28
2023-03-30T15:18:02.185Z,99737.72
2023-03-30T15:20:31.972Z,99739.75
2023-03-30T15:23:00.838Z,99730.06
2023-03-30T15:25:33.338Z,99740.78
2023-03-30T15:28:20.603Z,99741.81
2023-03-30T15:30:52.801Z,99752.13
2023-03-30T15:33:54.441Z,99745.06
2023-03-30T15:36:34.612Z,99732.09
2023-03-30T15:39:01.758Z,99750.31
2023-03-30T15:41:57.986Z,99736.75
2023-03-30T15:44:25.026Z,99735.72
2023-03-30T15:46:56.369Z,99737.56
2023-03-30T15:49:33.137Z,99745.03
2023-03-30T15:52:02.000Z,99731.31
2023-03-30T15:54:48.514Z,99733.75
2023-03-30T15:57:25.151Z,99735.97
2023-03-30T16:00:02.353Z,99743.44
2023-03-30T16:02:32.374Z,99747.91
2023-03-30T16:05:01.701Z,99747.88
2023-03-30T16:07:31.419Z,99766.88
2023-03-30T16:09:58.626Z,99753.34
2023-03-30T16:12:31.133Z,99748.28
2023-03-30T16:14:58.831Z,99746.22
2023-03-30T16:17:26.025Z,99747.44
2023-03-30T16:19:53.230Z,99744.16
2023-03-30T16:22:20.359Z,99747.41
2023-03-30T16:24:48.242Z,99749.03
2023-03-30T16:27:15.416Z,99744.19
2023-03-30T16:29:42.351Z,99753.69
2023-03-30T16:32:09.622Z,99750.25
2023-03-30T16:34:36.913Z,99749.25
2023-03-30T16:37:03.800Z,99751.28
2023-03-30T16:39:30.800Z,99754.94
2023-03-30T16:41:58.005Z,99741.38
2023-03-30T16:44:25.443Z,99741.78
2023-03-30T16:46:52.639Z,99737.97
2023-03-30T16:49:23.524Z,99738.97
2023-03-30T16:51:53.508Z,99743.00
2023-03-30T16:54:31.006Z,99734.69
2023-03-30T16:57:00.576Z,99743.19
2023-03-30T16:59:30.623Z,99746.81
2023-03-30T17:01:59.219Z,99740.75
2023-03-30T17:04:26.751Z,99740.72
2023-03-30T17:06:54.620Z,99745.41
2023-03-30T17:09:21.715Z,99750.63
2023-03-30T17:11:50.343Z,99754.69
2023-03-30T17:14:18.148Z,99762.31
2023-03-30T17:16:45.459Z,99746.16
2023-03-30T17:19:14.474Z,99755.25
2023-03-30T17:21:43.644Z,99759.47
2023-03-30T17:24:12.535Z,99759.44
2023-03-30T17:26:40.100Z,99757.66
2023-03-30T17:29:07.095Z,99756.59
2023-03-30T17:31:34.170Z,99768.97
2023-03-30T17:34:01.753Z,99764.47
2023-03-30T17:36:29.063Z,99762.63
2023-03-30T17:38:56.626Z,99760.00
2023-03-30T17:41:24.660Z,99760.53
2023-03-30T17:43:51.656Z,99759.72
2023-03-30T17:46:20.741Z,99764.03
2023-03-30T17:48:47.811Z,99781.06
2023-03-30T17:51:14.780Z,99810.03
2023-03-30T17:53:41.854Z,99808.41
2023-03-30T17:56:12.857Z,99819.00
2023-03-30T17:58:39.906Z,99828.41
2023-03-30T18:01:09.572Z,99832.81
2023-03-30T18:03:39.151Z,99838.06
2023-03-30T18:06:07.261Z,99848.47
2023-03-30T18:08:34.557Z,99846.56
2023-03-30T18:11:01.915Z,99848.75
2023-03-30T18:13:30.748Z,99836.25
2023-03-30T18:15:59.567Z,99837.75
2023-03-30T18:18:29.931Z,99831.97
2023-03-30T18:21:02.567Z,99831.81
2023-03-30T18:23:31.511Z,99839.44
2023-03-30T18:25:58.650Z,99846.41
2023-03-30T18:28:27.591Z,99844.59
2023-03-30T18:31:00.870Z,99857.63
2023-03-30T18:33:28.448Z,99857.38
2023-03-30T18:36:04.602Z,99862.78
2023-03-30T18:38:33.312Z,99862.31
2023-03-30T18:41:01.330Z,99868.34
2023-03-30T18:43:28.832Z,99865.38
2023-03-30T18:46:00.740Z,99866.91
2023-03-30T18:48:28.679Z,99871.31
2023-03-30T18:50:56.311Z,99871.16
2023-03-30T18:53:29.356Z,99867.34
2023-03-30T18:56:00.530Z,99879.44
2023-03-30T18:58:31.149Z,99877.44
2023-03-30T19:00:58.259Z,99870.59
2023-03-30T19:03:28.302Z,99862.53
2023-03-30T19:05:55.365Z,99865.41
2023-03-30T19:08:25.473Z,99857.59
2023-03-30T19:10:56.072Z,99860.69
2023-03-30T19:13:26.172Z,99860.47
2023-03-30T19:15:53.706Z,99864.03
2023-03-30T19:18:21.125Z,99870.56
2023-03-30T19:20:50.069Z,99859.09
2023-03-30T19:23:18.674Z,99857.44
2023-03-30T19:25:46.294Z,99853.94
2023-03-30T19:28:16.096Z,99850.78
2023-03-30T19:30:44.041Z,99851.06
2023-03-30T19:33:19.765Z,99854.59
2023-03-30T19:35:47.588Z,99850.59
2023-03-30T19:38:15.811Z,99853.84
2023-03-30T19:40:42.986Z,99856.47
2023-03-30T19:43:10.524Z,99854.84
2023-03-30T19:45:38.193Z,99852.06
2023-03-30T19:48:05.519Z,99854.03
2023-03-30T19:50:33.827Z,99849.28
2023-03-30T19:53:00.824Z,99853.88
2023-03-30T19:55:28.414Z,99851.63
2023-03-30T19:57:55.739Z,99836.16
2023-03-30T20:00:23.384Z,99834.22
2023-03-30T20:02:53.355Z,99833.91
2023-03-30T20:05:22.504Z,99826.13
2023-03-30T20:07:50.810Z,99832.03
2023-03-30T20:10:22.383Z,99822.28
2023-03-30T20:12:51.223Z,99826.88
2023-03-30T20:15:25.833Z,99820.91
2023-03-30T20:17:56.804Z,99829.25
2023-03-30T20:20:25.755Z,99831.06
2023-03-30T20:22:56.350Z,99816.28
2023-03-30T20:25:24.547Z,99832.66
2023-03-30T20:27:52.379Z,99828.78
2023-03-30T20:30:20.545Z,99829.16
2023-03-30T20:33:04.331Z,99825.16
2023-03-30T20:35:35.265Z,99834.09
2023-03-30T20:38:04.471Z,99822.63
2023-03-30T20:40:32.148Z,99820.94
2023-03-30T20:43:09.853Z,99819.59
2023-03-30T20:45:46.183Z,99815.28
2023-03-30T20:48:26.540Z,99811.94
2023-03-30T20:50:55.417Z,99809.69
2023-03-30T20:53:22.996Z,99795.44
2023-03-30T20:55:49.935Z,99796.34
2023-03-30T20:58:16.869Z,99802.50
2023-03-30T21:00:43.757Z,99813.78
2023-03-30T21:03:10.952Z,99816.97
2023-03-30T21:05:37.895Z,99856.00
2023-03-30T21:08:07.761Z,99888.41
2023-03-30T21:10:34.918Z,99926.41
2023-03-30T21:13:01.814Z,99935.78
2023-03-30T21:15:28.743Z,99921.13
2023-03-30T21:17:55.909Z,99906.47
2023-03-30T21:20:22.892Z,99891.81
2023-03-30T21:22:49.799Z,99898.69
2023-03-30T21:25:16.876Z,99904.06
2023-03-30T21:27:43.731Z,99910.38
2023-03-30T21:30:12.150Z,99890.75
2023-03-30T21:32:39.075Z,99873.13
2023-03-30T21:35:06.715Z,99874.31
2023-03-30T21:37:33.744Z,99868.25
2023-03-30T21:40:00.781Z,99848.81
2023-03-30T21:42:27.660Z,99849.16
2023-03-30T21:44:54.562Z,99846.03
2023-03-30T21:47:21.482Z,99827.53
2023-03-30T21:49:48.514Z,99808.47
2023-03-30T21:52:15.698Z,99804.66
2023-03-30T21:54:42.711Z,99787.59
2023-03-30T21:57:09.861Z,99791.09
2023-03-30T21:59:36.757Z,99797.25
2023-03-30T22:02:03.768Z,99786.69
2023-03-30T22:04:30.862Z,99778.59
2023-03-30T22:06:57.758Z,99775.63
2023-03-30T22:09:24.717Z,99778.69
2023-03-30T22:11:54.076Z,99765.28
2023-03-30T22:14:21.405Z,99760.59
2023-03-30T22:16:48.599Z,99758.44
2023-03-30T22:19:15.642Z,99762.84
2023-03-30T22:21:42.746Z,99765.28
2023-03-30T22:24:11.777Z,99756.31
2023-03-30T22:26:38.756Z,99757.94
2023-03-30T22:29:06.069Z,99749.63
2023-03-30T22:31:33.289Z,99746.84
2023-03-30T22:34:00.456Z,99746.38
2023-03-30T22:36:30.871Z,99743.00
2023-03-30T22:38:59.397Z,99736.41
2023-03-30T22:41:26.751Z,99727.38
2023-03-30T22:43:57.255Z,99733.00
2023-03-30T22:46:26.219Z,99728.66
2023-03-30T22:48:55.739Z,99721.91
2023-03-30T22:51:26.754Z,99717.28
2023-03-30T22:53:58.104Z,99720.56
2023-03-30T22:56:25.995Z,99716.59
2023-03-30T22:58:52.971Z,99709.91
2023-03-30T23:01:21.611Z,99712.75
2023-03-30T23:03:48.828Z,99711.91
2023-03-30T23:06:18.776Z,99699.50
2023-03-30T23:08:48.451Z,99696.22
2023-03-30T23:11:16.118Z,99697.97
2023-03-30T23:13:43.124Z,99690.69
2023-03-30T23:16:10.585Z,99684.03
2023-03-30T23:18:38.040Z,99686.19
2023-03-30T23:21:07.114Z,99695.47
2023-03-30T23:23:35.960Z,99696.09
2023-03-30T23:26:08.282Z,99689.66
2023-03-30T23:28:38.958Z,99673.31
2023-03-30T23:31:17.849Z,99653.41
2023-03-30T23:33:45.471Z,99661.94
2023-03-30T23:36:19.200Z,99667.28
2023-03-30T23:38:47.011Z,99656.97
2023-03-30T23:41:17.054Z,99648.84
2023-03-30T23:43:45.022Z,99648.38
2023-03-30T23:46:13.383Z,99652.00
2023-03-30T23:48:42.028Z,99656.31
2023-03-30T23:51:09.589Z,99651.75
2023-03-30T23:53:40.094Z,99652.28
2023-03-30T23:56:12.936Z,99645.97
2023-03-30T23:58:41.221Z,99649.72
